sensor_id;sensor_type;location;lat;lon;timestamp;P1;durP1;ratioP1;P2;durP2;ratioP2
75090;SDS011;63674;48.048;8.306;2024-02-28T00:00:11;23.90;;;11.48;;
75090;SDS011;63674;48.048;8.306;2024-02-28T00:02:40;26.45;;;11.48;;
75090;SDS011;63674;48.048;8.306;2024-02-28T00:05:09;23.40;;;11.50;;
75090;SDS011;63674;48.048;8.306;2024-02-28T00:07:37;24.75;;;11.32;;
75090;SDS011;63674;48.048;8.306;2024-02-28T00:10:06;22.92;;;10.77;;
75090;SDS011;63674;48.048;8.306;2024-02-28T00:12:36;23.52;;;11.63;;
75090;SDS011;63674;48.048;8.306;2024-02-28T00:15:08;22.58;;;10.55;;
75090;SDS011;63674;48.048;8.306;2024-02-28T00:17:38;23.25;;;10.48;;
75090;SDS011;63674;48.048;8.306;2024-02-28T00:20:08;20.73;;;10.40;;
75090;SDS011;63674;48.048;8.306;2024-02-28T00:22:38;23.13;;;10.13;;
75090;SDS011;63674;48.048;8.306;2024-02-28T00:25:07;24.08;;;10.68;;
75090;SDS011;63674;48.048;8.306;2024-02-28T00:27:37;23.08;;;10.27;;
75090;SDS011;63674;48.048;8.306;2024-02-28T00:30:08;20.98;;;9.90;;
75090;SDS011;63674;48.048;8.306;2024-02-28T00:32:37;21.75;;;10.43;;
75090;SDS011;63674;48.048;8.306;2024-02-28T00:35:06;21.42;;;9.95;;
75090;SDS011;63674;48.048;8.306;2024-02-28T00:37:35;22.63;;;11.00;;
75090;SDS011;63674;48.048;8.306;2024-02-28T00:40:04;23.63;;;11.00;;
75090;SDS011;63674;48.048;8.306;2024-02-28T00:42:36;23.85;;;10.68;;
75090;SDS011;63674;48.048;8.306;2024-02-28T00:45:05;22.52;;;10.35;;
75090;SDS011;63674;48.048;8.306;2024-02-28T00:47:36;21.48;;;9.95;;
75090;SDS011;63674;48.048;8.306;2024-02-28T00:50:07;22.23;;;10.45;;
75090;SDS011;63674;48.048;8.306;2024-02-28T00:52:37;22.40;;;11.17;;
75090;SDS011;63674;48.048;8.306;2024-02-28T00:55:06;19.75;;;9.85;;
75090;SDS011;63674;48.048;8.306;2024-02-28T00:57:35;23.25;;;10.88;;
75090;SDS011;63674;48.048;8.306;2024-02-28T01:00:04;22.90;;;10.40;;
75090;SDS011;63674;48.048;8.306;2024-02-28T01:02:39;20.92;;;10.55;;
75090;SDS011;63674;48.048;8.306;2024-02-28T01:05:08;23.13;;;10.45;;
75090;SDS011;63674;48.048;8.306;2024-02-28T01:07:36;20.85;;;9.70;;
75090;SDS011;63674;48.048;8.306;2024-02-28T01:10:06;21.35;;;10.65;;
75090;SDS011;63674;48.048;8.306;2024-02-28T01:12:35;20.38;;;10.20;;
75090;SDS011;63674;48.048;8.306;2024-02-28T01:15:04;20.60;;;10.10;;
75090;SDS011;63674;48.048;8.306;2024-02-28T01:17:34;18.90;;;9.63;;
75090;SDS011;63674;48.048;8.306;2024-02-28T01:20:04;21.42;;;10.23;;
75090;SDS011;63674;48.048;8.306;2024-02-28T01:22:35;22.58;;;11.00;;
75090;SDS011;63674;48.048;8.306;2024-02-28T01:25:04;20.67;;;9.35;;
75090;SDS011;63674;48.048;8.306;2024-02-28T01:27:33;20.88;;;9.73;;
75090;SDS011;63674;48.048;8.306;2024-02-28T01:30:01;19.77;;;9.65;;
75090;SDS011;63674;48.048;8.306;2024-02-28T01:32:31;22.58;;;9.95;;
75090;SDS011;63674;48.048;8.306;2024-02-28T01:34:59;19.38;;;9.13;;
75090;SDS011;63674;48.048;8.306;2024-02-28T01:37:31;21.77;;;10.07;;
75090;SDS011;63674;48.048;8.306;2024-02-28T01:40:00;20.10;;;9.68;;
75090;SDS011;63674;48.048;8.306;2024-02-28T01:42:30;21.02;;;9.05;;
75090;SDS011;63674;48.048;8.306;2024-02-28T01:44:59;19.80;;;9.27;;
75090;SDS011;63674;48.048;8.306;2024-02-28T01:47:28;22.15;;;9.00;;
75090;SDS011;63674;48.048;8.306;2024-02-28T01:49:57;23.85;;;9.98;;
75090;SDS011;63674;48.048;8.306;2024-02-28T01:52:25;22.63;;;10.02;;
75090;SDS011;63674;48.048;8.306;2024-02-28T01:54:56;19.35;;;9.07;;
75090;SDS011;63674;48.048;8.306;2024-02-28T01:57:25;19.85;;;9.48;;
75090;SDS011;63674;48.048;8.306;2024-02-28T01:59:54;22.20;;;9.38;;
75090;SDS011;63674;48.048;8.306;2024-02-28T02:02:22;20.63;;;9.88;;
75090;SDS011;63674;48.048;8.306;2024-02-28T02:04:51;19.60;;;9.60;;
75090;SDS011;63674;48.048;8.306;2024-02-28T02:07:20;21.23;;;9.25;;
75090;SDS011;63674;48.048;8.306;2024-02-28T02:09:49;19.65;;;9.88;;
75090;SDS011;63674;48.048;8.306;2024-02-28T02:12:19;22.48;;;10.57;;
75090;SDS011;63674;48.048;8.306;2024-02-28T02:14:48;17.23;;;8.20;;
75090;SDS011;63674;48.048;8.306;2024-02-28T02:17:16;18.33;;;8.93;;
75090;SDS011;63674;48.048;8.306;2024-02-28T02:19:45;20.80;;;9.13;;
75090;SDS011;63674;48.048;8.306;2024-02-28T02:22:14;20.35;;;9.43;;
75090;SDS011;63674;48.048;8.306;2024-02-28T02:24:44;20.88;;;9.48;;
75090;SDS011;63674;48.048;8.306;2024-02-28T02:27:13;21.20;;;9.80;;
75090;SDS011;63674;48.048;8.306;2024-02-28T02:29:42;21.65;;;9.95;;
75090;SDS011;63674;48.048;8.306;2024-02-28T02:32:29;22.65;;;10.27;;
75090;SDS011;63674;48.048;8.306;2024-02-28T02:35:16;18.77;;;8.85;;
75090;SDS011;63674;48.048;8.306;2024-02-28T02:38:03;21.15;;;10.43;;
75090;SDS011;63674;48.048;8.306;2024-02-28T02:40:52;21.98;;;10.32;;
75090;SDS011;63674;48.048;8.306;2024-02-28T02:43:39;20.30;;;9.90;;
75090;SDS011;63674;48.048;8.306;2024-02-28T02:46:26;21.92;;;9.55;;
75090;SDS011;63674;48.048;8.306;2024-02-28T02:49:14;20.52;;;8.82;;
75090;SDS011;63674;48.048;8.306;2024-02-28T02:52:03;18.25;;;9.27;;
75090;SDS011;63674;48.048;8.306;2024-02-28T02:54:51;20.23;;;8.90;;
75090;SDS011;63674;48.048;8.306;2024-02-28T02:57:39;19.70;;;9.55;;
75090;SDS011;63674;48.048;8.306;2024-02-28T03:00:27;18.05;;;8.95;;
75090;SDS011;63674;48.048;8.306;2024-02-28T03:03:14;19.92;;;9.50;;
75090;SDS011;63674;48.048;8.306;2024-02-28T03:06:02;17.17;;;8.13;;
75090;SDS011;63674;48.048;8.306;2024-02-28T03:08:49;16.65;;;7.93;;
75090;SDS011;63674;48.048;8.306;2024-02-28T03:11:37;18.33;;;8.48;;
75090;SDS011;63674;48.048;8.306;2024-02-28T03:14:25;20.27;;;8.45;;
75090;SDS011;63674;48.048;8.306;2024-02-28T03:17:13;16.95;;;8.65;;
75090;SDS011;63674;48.048;8.306;2024-02-28T03:20:00;21.17;;;9.70;;
75090;SDS011;63674;48.048;8.306;2024-02-28T03:22:48;19.73;;;9.65;;
75090;SDS011;63674;48.048;8.306;2024-02-28T03:25:35;19.77;;;9.23;;
75090;SDS011;63674;48.048;8.306;2024-02-28T03:28:22;22.02;;;9.27;;
75090;SDS011;63674;48.048;8.306;2024-02-28T03:31:11;21.83;;;9.70;;
75090;SDS011;63674;48.048;8.306;2024-02-28T03:33:58;19.40;;;9.40;;
75090;SDS011;63674;48.048;8.306;2024-02-28T03:36:45;19.75;;;9.00;;
75090;SDS011;63674;48.048;8.306;2024-02-28T03:39:33;21.58;;;9.07;;
75090;SDS011;63674;48.048;8.306;2024-02-28T03:42:08;17.80;;;8.82;;
75090;SDS011;63674;48.048;8.306;2024-02-28T03:44:37;19.33;;;9.13;;
75090;SDS011;63674;48.048;8.306;2024-02-28T03:47:07;21.92;;;9.55;;
75090;SDS011;63674;48.048;8.306;2024-02-28T03:49:35;19.98;;;9.30;;
75090;SDS011;63674;48.048;8.306;2024-02-28T03:52:04;18.70;;;8.52;;
75090;SDS011;63674;48.048;8.306;2024-02-28T03:54:33;17.58;;;8.77;;
75090;SDS011;63674;48.048;8.306;2024-02-28T03:57:02;19.55;;;9.20;;
75090;SDS011;63674;48.048;8.306;2024-02-28T03:59:31;20.40;;;9.40;;
75090;SDS011;63674;48.048;8.306;2024-02-28T04:02:00;19.98;;;9.55;;
75090;SDS011;63674;48.048;8.306;2024-02-28T04:04:29;20.58;;;9.90;;
75090;SDS011;63674;48.048;8.306;2024-02-28T04:06:58;17.65;;;8.32;;
75090;SDS011;63674;48.048;8.306;2024-02-28T04:09:26;18.38;;;9.10;;
75090;SDS011;63674;48.048;8.306;2024-02-28T04:11:55;15.00;;;7.10;;
75090;SDS011;63674;48.048;8.306;2024-02-28T04:14:24;19.50;;;8.68;;
75090;SDS011;63674;48.048;8.306;2024-02-28T04:16:52;17.52;;;8.18;;
75090;SDS011;63674;48.048;8.306;2024-02-28T04:19:20;17.58;;;8.05;;
75090;SDS011;63674;48.048;8.306;2024-02-28T04:21:50;17.73;;;8.07;;
75090;SDS011;63674;48.048;8.306;2024-02-28T04:24:19;16.80;;;8.63;;
75090;SDS011;63674;48.048;8.306;2024-02-28T04:26:48;18.27;;;7.97;;
75090;SDS011;63674;48.048;8.306;2024-02-28T04:29:20;18.40;;;8.27;;
75090;SDS011;63674;48.048;8.306;2024-02-28T04:31:48;17.17;;;7.85;;
75090;SDS011;63674;48.048;8.306;2024-02-28T04:34:16;19.60;;;8.77;;
75090;SDS011;63674;48.048;8.306;2024-02-28T04:36:45;16.88;;;8.43;;
75090;SDS011;63674;48.048;8.306;2024-02-28T04:39:15;19.20;;;8.63;;
75090;SDS011;63674;48.048;8.306;2024-02-28T04:41:43;17.98;;;8.32;;
75090;SDS011;63674;48.048;8.306;2024-02-28T04:44:12;18.10;;;7.82;;
75090;SDS011;63674;48.048;8.306;2024-02-28T04:46:41;17.55;;;7.70;;
75090;SDS011;63674;48.048;8.306;2024-02-28T04:49:09;18.95;;;7.65;;
75090;SDS011;63674;48.048;8.306;2024-02-28T04:51:38;16.25;;;7.65;;
75090;SDS011;63674;48.048;8.306;2024-02-28T04:54:07;19.23;;;8.75;;
75090;SDS011;63674;48.048;8.306;2024-02-28T04:56:40;20.73;;;8.83;;
75090;SDS011;63674;48.048;8.306;2024-02-28T04:59:09;16.38;;;7.97;;
75090;SDS011;63674;48.048;8.306;2024-02-28T05:01:39;19.08;;;8.60;;
75090;SDS011;63674;48.048;8.306;2024-02-28T05:04:09;17.00;;;8.23;;
75090;SDS011;63674;48.048;8.306;2024-02-28T05:06:37;20.15;;;8.65;;
75090;SDS011;63674;48.048;8.306;2024-02-28T05:09:06;19.38;;;8.48;;
75090;SDS011;63674;48.048;8.306;2024-02-28T05:11:35;19.63;;;9.00;;
75090;SDS011;63674;48.048;8.306;2024-02-28T05:14:05;21.15;;;9.55;;
75090;SDS011;63674;48.048;8.306;2024-02-28T05:16:34;18.92;;;8.55;;
75090;SDS011;63674;48.048;8.306;2024-02-28T05:19:02;21.52;;;9.98;;
75090;SDS011;63674;48.048;8.306;2024-02-28T05:21:31;20.50;;;9.13;;
75090;SDS011;63674;48.048;8.306;2024-02-28T05:24:00;20.40;;;9.93;;
75090;SDS011;63674;48.048;8.306;2024-02-28T05:26:29;20.52;;;9.40;;
75090;SDS011;63674;48.048;8.306;2024-02-28T05:29:00;20.23;;;8.98;;
75090;SDS011;63674;48.048;8.306;2024-02-28T05:31:31;20.75;;;10.10;;
75090;SDS011;63674;48.048;8.306;2024-02-28T05:34:00;20.93;;;10.17;;
75090;SDS011;63674;48.048;8.306;2024-02-28T05:36:29;19.15;;;9.10;;
75090;SDS011;63674;48.048;8.306;2024-02-28T05:38:59;19.77;;;9.40;;
75090;SDS011;63674;48.048;8.306;2024-02-28T05:41:29;22.52;;;9.57;;
75090;SDS011;63674;48.048;8.306;2024-02-28T05:43:58;20.42;;;9.82;;
75090;SDS011;63674;48.048;8.306;2024-02-28T05:46:26;23.90;;;9.97;;
75090;SDS011;63674;48.048;8.306;2024-02-28T05:48:56;20.08;;;9.73;;
75090;SDS011;63674;48.048;8.306;2024-02-28T05:51:24;20.58;;;9.50;;
75090;SDS011;63674;48.048;8.306;2024-02-28T05:53:53;19.83;;;9.57;;
75090;SDS011;63674;48.048;8.306;2024-02-28T05:56:22;20.70;;;9.38;;
75090;SDS011;63674;48.048;8.306;2024-02-28T05:58:50;22.37;;;9.93;;
75090;SDS011;63674;48.048;8.306;2024-02-28T06:01:19;19.73;;;9.23;;
75090;SDS011;63674;48.048;8.306;2024-02-28T06:03:48;18.98;;;9.10;;
75090;SDS011;63674;48.048;8.306;2024-02-28T06:06:19;20.77;;;9.02;;
75090;SDS011;63674;48.048;8.306;2024-02-28T06:08:48;17.80;;;7.75;;
75090;SDS011;63674;48.048;8.306;2024-02-28T06:11:16;18.80;;;8.27;;
75090;SDS011;63674;48.048;8.306;2024-02-28T06:13:45;19.95;;;9.18;;
75090;SDS011;63674;48.048;8.306;2024-02-28T06:16:16;19.15;;;9.02;;
75090;SDS011;63674;48.048;8.306;2024-02-28T06:18:45;20.33;;;9.18;;
75090;SDS011;63674;48.048;8.306;2024-02-28T06:21:14;18.88;;;9.13;;
75090;SDS011;63674;48.048;8.306;2024-02-28T06:23:44;17.70;;;8.55;;
75090;SDS011;63674;48.048;8.306;2024-02-28T06:26:12;18.98;;;8.38;;
75090;SDS011;63674;48.048;8.306;2024-02-28T06:28:44;17.25;;;8.32;;
75090;SDS011;63674;48.048;8.306;2024-02-28T06:31:14;19.60;;;8.82;;
75090;SDS011;63674;48.048;8.306;2024-02-28T06:33:43;19.67;;;9.32;;
75090;SDS011;63674;48.048;8.306;2024-02-28T06:36:12;20.90;;;9.25;;
75090;SDS011;63674;48.048;8.306;2024-02-28T06:38:41;23.00;;;9.05;;
75090;SDS011;63674;48.048;8.306;2024-02-28T06:41:11;20.13;;;9.13;;
75090;SDS011;63674;48.048;8.306;2024-02-28T06:43:40;19.85;;;9.23;;
75090;SDS011;63674;48.048;8.306;2024-02-28T06:46:08;19.55;;;9.25;;
75090;SDS011;63674;48.048;8.306;2024-02-28T06:48:37;22.80;;;9.40;;
75090;SDS011;63674;48.048;8.306;2024-02-28T06:51:06;21.15;;;9.45;;
75090;SDS011;63674;48.048;8.306;2024-02-28T06:53:34;21.65;;;10.13;;
75090;SDS011;63674;48.048;8.306;2024-02-28T06:56:04;23.13;;;10.70;;
75090;SDS011;63674;48.048;8.306;2024-02-28T06:58:33;22.92;;;10.05;;
75090;SDS011;63674;48.048;8.306;2024-02-28T07:01:02;24.33;;;11.13;;
75090;SDS011;63674;48.048;8.306;2024-02-28T07:03:31;20.17;;;9.93;;
75090;SDS011;63674;48.048;8.306;2024-02-28T07:06:00;21.88;;;10.15;;
75090;SDS011;63674;48.048;8.306;2024-02-28T07:08:29;21.35;;;10.00;;
75090;SDS011;63674;48.048;8.306;2024-02-28T07:10:59;21.52;;;9.98;;
75090;SDS011;63674;48.048;8.306;2024-02-28T07:13:30;22.48;;;9.93;;
75090;SDS011;63674;48.048;8.306;2024-02-28T07:15:59;23.80;;;9.68;;
75090;SDS011;63674;48.048;8.306;2024-02-28T07:18:28;21.63;;;9.32;;
75090;SDS011;63674;48.048;8.306;2024-02-28T07:20:56;19.80;;;8.98;;
75090;SDS011;63674;48.048;8.306;2024-02-28T07:23:25;22.27;;;9.90;;
75090;SDS011;63674;48.048;8.306;2024-02-28T07:25:53;20.77;;;9.30;;
75090;SDS011;63674;48.048;8.306;2024-02-28T07:28:26;23.33;;;10.10;;
75090;SDS011;63674;48.048;8.306;2024-02-28T07:30:56;23.48;;;10.15;;
75090;SDS011;63674;48.048;8.306;2024-02-28T07:33:25;24.48;;;10.20;;
75090;SDS011;63674;48.048;8.306;2024-02-28T07:35:53;26.08;;;10.40;;
75090;SDS011;63674;48.048;8.306;2024-02-28T07:38:27;22.13;;;9.95;;
75090;SDS011;63674;48.048;8.306;2024-02-28T07:40:56;24.45;;;9.95;;
75090;SDS011;63674;48.048;8.306;2024-02-28T07:43:24;24.05;;;10.05;;
75090;SDS011;63674;48.048;8.306;2024-02-28T07:45:51;26.40;;;11.70;;
75090;SDS011;63674;48.048;8.306;2024-02-28T07:48:21;22.50;;;11.30;;
75090;SDS011;63674;48.048;8.306;2024-02-28T07:50:50;21.50;;;10.32;;
75090;SDS011;63674;48.048;8.306;2024-02-28T07:53:18;20.45;;;9.45;;
75090;SDS011;63674;48.048;8.306;2024-02-28T07:55:48;23.17;;;10.38;;
75090;SDS011;63674;48.048;8.306;2024-02-28T07:58:16;22.98;;;9.57;;
75090;SDS011;63674;48.048;8.306;2024-02-28T08:00:44;21.85;;;9.52;;
75090;SDS011;63674;48.048;8.306;2024-02-28T08:03:13;21.42;;;9.18;;
75090;SDS011;63674;48.048;8.306;2024-02-28T08:05:44;19.98;;;9.15;;
75090;SDS011;63674;48.048;8.306;2024-02-28T08:08:13;20.00;;;8.82;;
75090;SDS011;63674;48.048;8.306;2024-02-28T08:10:42;20.65;;;9.10;;
75090;SDS011;63674;48.048;8.306;2024-02-28T08:13:11;18.63;;;8.75;;
75090;SDS011;63674;48.048;8.306;2024-02-28T08:15:40;19.58;;;8.35;;
75090;SDS011;63674;48.048;8.306;2024-02-28T08:18:09;19.02;;;8.15;;
75090;SDS011;63674;48.048;8.306;2024-02-28T08:20:38;21.25;;;9.13;;
75090;SDS011;63674;48.048;8.306;2024-02-28T08:23:08;19.70;;;8.57;;
75090;SDS011;63674;48.048;8.306;2024-02-28T08:25:37;20.35;;;8.50;;
75090;SDS011;63674;48.048;8.306;2024-02-28T08:28:05;19.70;;;8.93;;
75090;SDS011;63674;48.048;8.306;2024-02-28T08:30:34;20.05;;;8.77;;
75090;SDS011;63674;48.048;8.306;2024-02-28T08:33:03;18.67;;;8.18;;
75090;SDS011;63674;48.048;8.306;2024-02-28T08:35:34;21.88;;;9.05;;
75090;SDS011;63674;48.048;8.306;2024-02-28T08:38:03;20.67;;;9.20;;
75090;SDS011;63674;48.048;8.306;2024-02-28T08:40:33;17.92;;;8.00;;
75090;SDS011;63674;48.048;8.306;2024-02-28T08:43:02;19.20;;;8.30;;
75090;SDS011;63674;48.048;8.306;2024-02-28T08:45:30;19.80;;;8.10;;
75090;SDS011;63674;48.048;8.306;2024-02-28T08:48:03;20.83;;;9.68;;
75090;SDS011;63674;48.048;8.306;2024-02-28T08:50:33;18.63;;;8.50;;
75090;SDS011;63674;48.048;8.306;2024-02-28T08:53:02;22.15;;;10.07;;
75090;SDS011;63674;48.048;8.306;2024-02-28T08:55:31;20.90;;;9.65;;
75090;SDS011;63674;48.048;8.306;2024-02-28T08:58:01;20.42;;;9.02;;
75090;SDS011;63674;48.048;8.306;2024-02-28T09:00:29;19.17;;;8.82;;
75090;SDS011;63674;48.048;8.306;2024-02-28T09:02:58;19.98;;;8.75;;
75090;SDS011;63674;48.048;8.306;2024-02-28T09:05:28;20.65;;;9.00;;
75090;SDS011;63674;48.048;8.306;2024-02-28T09:07:57;20.42;;;9.30;;
75090;SDS011;63674;48.048;8.306;2024-02-28T09:10:25;21.98;;;9.02;;
75090;SDS011;63674;48.048;8.306;2024-02-28T09:12:56;17.70;;;8.38;;
75090;SDS011;63674;48.048;8.306;2024-02-28T09:15:25;19.85;;;9.10;;
75090;SDS011;63674;48.048;8.306;2024-02-28T09:17:54;17.45;;;7.85;;
75090;SDS011;63674;48.048;8.306;2024-02-28T09:20:22;19.52;;;8.48;;
75090;SDS011;63674;48.048;8.306;2024-02-28T09:22:52;18.50;;;8.13;;
75090;SDS011;63674;48.048;8.306;2024-02-28T09:25:20;17.65;;;8.45;;
75090;SDS011;63674;48.048;8.306;2024-02-28T09:27:52;19.85;;;8.63;;
75090;SDS011;63674;48.048;8.306;2024-02-28T09:30:22;19.53;;;8.27;;
75090;SDS011;63674;48.048;8.306;2024-02-28T09:32:58;15.77;;;7.47;;
75090;SDS011;63674;48.048;8.306;2024-02-28T09:35:26;18.17;;;8.27;;
75090;SDS011;63674;48.048;8.306;2024-02-28T09:37:55;19.10;;;7.68;;
75090;SDS011;63674;48.048;8.306;2024-02-28T09:40:24;18.20;;;8.10;;
75090;SDS011;63674;48.048;8.306;2024-02-28T09:42:57;16.63;;;8.02;;
75090;SDS011;63674;48.048;8.306;2024-02-28T09:45:31;17.50;;;8.30;;
75090;SDS011;63674;48.048;8.306;2024-02-28T09:48:00;17.98;;;8.13;;
75090;SDS011;63674;48.048;8.306;2024-02-28T09:50:30;16.20;;;7.93;;
75090;SDS011;63674;48.048;8.306;2024-02-28T09:52:59;18.45;;;8.32;;
75090;SDS011;63674;48.048;8.306;2024-02-28T09:55:36;21.23;;;8.93;;
75090;SDS011;63674;48.048;8.306;2024-02-28T09:58:05;20.33;;;9.23;;
75090;SDS011;63674;48.048;8.306;2024-02-28T10:00:36;20.45;;;9.55;;
75090;SDS011;63674;48.048;8.306;2024-02-28T10:03:05;19.52;;;9.20;;
75090;SDS011;63674;48.048;8.306;2024-02-28T10:05:35;18.33;;;8.52;;
75090;SDS011;63674;48.048;8.306;2024-02-28T10:08:05;20.08;;;9.63;;
75090;SDS011;63674;48.048;8.306;2024-02-28T10:10:36;20.08;;;9.02;;
75090;SDS011;63674;48.048;8.306;2024-02-28T10:13:05;18.30;;;9.32;;
75090;SDS011;63674;48.048;8.306;2024-02-28T10:15:34;19.50;;;9.57;;
75090;SDS011;63674;48.048;8.306;2024-02-28T10:18:04;19.83;;;9.55;;
75090;SDS011;63674;48.048;8.306;2024-02-28T10:20:33;19.38;;;8.90;;
75090;SDS011;63674;48.048;8.306;2024-02-28T10:23:03;19.10;;;8.73;;
75090;SDS011;63674;48.048;8.306;2024-02-28T10:25:33;18.45;;;8.88;;
75090;SDS011;63674;48.048;8.306;2024-02-28T10:28:14;21.75;;;9.05;;
75090;SDS011;63674;48.048;8.306;2024-02-28T10:30:43;20.15;;;9.35;;
75090;SDS011;63674;48.048;8.306;2024-02-28T10:33:14;21.27;;;9.77;;
75090;SDS011;63674;48.048;8.306;2024-02-28T10:35:43;23.45;;;10.10;;
75090;SDS011;63674;48.048;8.306;2024-02-28T10:38:13;21.10;;;9.32;;
75090;SDS011;63674;48.048;8.306;2024-02-28T10:40:41;18.88;;;8.57;;
75090;SDS011;63674;48.048;8.306;2024-02-28T10:43:11;20.63;;;9.07;;
75090;SDS011;63674;48.048;8.306;2024-02-28T10:45:40;19.60;;;8.33;;
75090;SDS011;63674;48.048;8.306;2024-02-28T10:48:32;20.95;;;9.63;;
75090;SDS011;63674;48.048;8.306;2024-02-28T10:51:02;20.88;;;9.93;;
75090;SDS011;63674;48.048;8.306;2024-02-28T10:53:32;18.92;;;9.32;;
75090;SDS011;63674;48.048;8.306;2024-02-28T10:56:05;19.73;;;8.30;;
75090;SDS011;63674;48.048;8.306;2024-02-28T10:58:41;20.10;;;9.18;;
75090;SDS011;63674;48.048;8.306;2024-02-28T11:01:19;18.67;;;8.50;;
75090;SDS011;63674;48.048;8.306;2024-02-28T11:03:50;18.92;;;9.00;;
75090;SDS011;63674;48.048;8.306;2024-02-28T11:06:21;17.85;;;8.73;;
75090;SDS011;63674;48.048;8.306;2024-02-28T11:08:51;16.92;;;8.60;;
75090;SDS011;63674;48.048;8.306;2024-02-28T11:11:21;17.90;;;8.30;;
75090;SDS011;63674;48.048;8.306;2024-02-28T11:13:53;16.58;;;8.55;;
75090;SDS011;63674;48.048;8.306;2024-02-28T11:16:26;15.68;;;7.53;;
75090;SDS011;63674;48.048;8.306;2024-02-28T11:18:58;17.10;;;8.57;;
75090;SDS011;63674;48.048;8.306;2024-02-28T11:21:29;17.77;;;7.93;;
75090;SDS011;63674;48.048;8.306;2024-02-28T11:24:02;17.27;;;7.90;;
75090;SDS011;63674;48.048;8.306;2024-02-28T11:26:33;18.05;;;8.98;;
75090;SDS011;63674;48.048;8.306;2024-02-28T11:29:01;23.65;;;11.40;;
75090;SDS011;63674;48.048;8.306;2024-02-28T11:31:30;30.70;;;14.52;;
75090;SDS011;63674;48.048;8.306;2024-02-28T11:34:00;21.05;;;10.50;;
75090;SDS011;63674;48.048;8.306;2024-02-28T11:36:28;19.65;;;10.70;;
75090;SDS011;63674;48.048;8.306;2024-02-28T11:38:58;20.80;;;11.18;;
75090;SDS011;63674;48.048;8.306;2024-02-28T11:41:27;19.25;;;8.93;;
75090;SDS011;63674;48.048;8.306;2024-02-28T11:43:55;20.30;;;10.40;;
75090;SDS011;63674;48.048;8.306;2024-02-28T11:46:24;18.42;;;8.45;;
75090;SDS011;63674;48.048;8.306;2024-02-28T11:48:53;22.40;;;9.27;;
75090;SDS011;63674;48.048;8.306;2024-02-28T11:51:23;18.95;;;9.05;;
75090;SDS011;63674;48.048;8.306;2024-02-28T11:53:52;17.58;;;8.10;;
75090;SDS011;63674;48.048;8.306;2024-02-28T11:56:20;18.88;;;9.00;;
75090;SDS011;63674;48.048;8.306;2024-02-28T11:58:49;17.92;;;9.27;;
75090;SDS011;63674;48.048;8.306;2024-02-28T12:01:18;19.40;;;8.30;;
75090;SDS011;63674;48.048;8.306;2024-02-28T12:03:47;19.20;;;8.82;;
75090;SDS011;63674;48.048;8.306;2024-02-28T12:06:16;17.55;;;9.02;;
75090;SDS011;63674;48.048;8.306;2024-02-28T12:08:46;16.60;;;8.52;;
75090;SDS011;63674;48.048;8.306;2024-02-28T12:11:15;20.48;;;10.70;;
75090;SDS011;63674;48.048;8.306;2024-02-28T12:13:44;24.20;;;14.30;;
75090;SDS011;63674;48.048;8.306;2024-02-28T12:16:15;21.75;;;11.45;;
75090;SDS011;63674;48.048;8.306;2024-02-28T12:18:43;15.13;;;8.25;;
75090;SDS011;63674;48.048;8.306;2024-02-28T12:21:14;19.60;;;9.18;;
75090;SDS011;63674;48.048;8.306;2024-02-28T12:23:42;19.10;;;9.05;;
75090;SDS011;63674;48.048;8.306;2024-02-28T12:26:12;17.43;;;8.80;;
75090;SDS011;63674;48.048;8.306;2024-02-28T12:28:41;17.05;;;8.68;;
75090;SDS011;63674;48.048;8.306;2024-02-28T12:31:09;21.30;;;8.90;;
75090;SDS011;63674;48.048;8.306;2024-02-28T12:33:39;16.85;;;8.75;;
75090;SDS011;63674;48.048;8.306;2024-02-28T12:36:09;16.65;;;8.30;;
75090;SDS011;63674;48.048;8.306;2024-02-28T12:38:37;16.50;;;7.57;;
75090;SDS011;63674;48.048;8.306;2024-02-28T12:41:07;17.80;;;7.97;;
75090;SDS011;63674;48.048;8.306;2024-02-28T12:43:38;17.17;;;7.72;;
75090;SDS011;63674;48.048;8.306;2024-02-28T12:46:07;16.90;;;8.30;;
75090;SDS011;63674;48.048;8.306;2024-02-28T12:48:36;15.15;;;7.88;;
75090;SDS011;63674;48.048;8.306;2024-02-28T12:51:06;16.70;;;8.03;;
75090;SDS011;63674;48.048;8.306;2024-02-28T12:53:36;16.10;;;7.18;;
75090;SDS011;63674;48.048;8.306;2024-02-28T12:56:04;18.42;;;8.52;;
75090;SDS011;63674;48.048;8.306;2024-02-28T12:58:33;17.88;;;8.60;;
75090;SDS011;63674;48.048;8.306;2024-02-28T13:01:03;16.27;;;8.27;;
75090;SDS011;63674;48.048;8.306;2024-02-28T13:03:32;17.47;;;7.97;;
75090;SDS011;63674;48.048;8.306;2024-02-28T13:06:01;14.43;;;7.10;;
75090;SDS011;63674;48.048;8.306;2024-02-28T13:08:29;14.77;;;7.70;;
75090;SDS011;63674;48.048;8.306;2024-02-28T13:10:58;16.30;;;7.30;;
75090;SDS011;63674;48.048;8.306;2024-02-28T13:13:27;16.58;;;8.20;;
75090;SDS011;63674;48.048;8.306;2024-02-28T13:15:55;16.10;;;8.13;;
75090;SDS011;63674;48.048;8.306;2024-02-28T13:18:25;14.48;;;7.20;;
75090;SDS011;63674;48.048;8.306;2024-02-28T13:20:54;14.80;;;7.93;;
75090;SDS011;63674;48.048;8.306;2024-02-28T13:23:23;15.90;;;7.53;;
75090;SDS011;63674;48.048;8.306;2024-02-28T13:25:53;16.45;;;7.60;;
75090;SDS011;63674;48.048;8.306;2024-02-28T13:28:21;16.30;;;8.50;;
75090;SDS011;63674;48.048;8.306;2024-02-28T13:30:56;18.05;;;8.43;;
75090;SDS011;63674;48.048;8.306;2024-02-28T13:33:26;16.13;;;7.50;;
75090;SDS011;63674;48.048;8.306;2024-02-28T13:35:55;15.10;;;7.30;;
75090;SDS011;63674;48.048;8.306;2024-02-28T13:38:24;15.90;;;7.72;;
75090;SDS011;63674;48.048;8.306;2024-02-28T13:40:52;14.73;;;7.60;;
75090;SDS011;63674;48.048;8.306;2024-02-28T13:43:21;15.23;;;8.07;;
75090;SDS011;63674;48.048;8.306;2024-02-28T13:45:50;15.13;;;7.47;;
75090;SDS011;63674;48.048;8.306;2024-02-28T13:48:21;17.90;;;7.35;;
75090;SDS011;63674;48.048;8.306;2024-02-28T13:50:53;13.93;;;6.57;;
75090;SDS011;63674;48.048;8.306;2024-02-28T13:53:22;14.43;;;6.57;;
75090;SDS011;63674;48.048;8.306;2024-02-28T13:55:51;13.18;;;6.05;;
75090;SDS011;63674;48.048;8.306;2024-02-28T13:58:19;15.93;;;6.35;;
75090;SDS011;63674;48.048;8.306;2024-02-28T14:00:48;12.60;;;6.15;;
75090;SDS011;63674;48.048;8.306;2024-02-28T14:03:17;13.60;;;5.95;;
75090;SDS011;63674;48.048;8.306;2024-02-28T14:05:45;12.83;;;5.87;;
75090;SDS011;63674;48.048;8.306;2024-02-28T14:08:15;12.00;;;6.03;;
75090;SDS011;63674;48.048;8.306;2024-02-28T14:10:44;12.77;;;6.28;;
75090;SDS011;63674;48.048;8.306;2024-02-28T14:13:13;13.93;;;5.97;;
75090;SDS011;63674;48.048;8.306;2024-02-28T14:15:45;12.60;;;5.72;;
75090;SDS011;63674;48.048;8.306;2024-02-28T14:18:13;12.17;;;5.83;;
75090;SDS011;63674;48.048;8.306;2024-02-28T14:20:42;13.27;;;6.03;;
75090;SDS011;63674;48.048;8.306;2024-02-28T14:23:10;12.90;;;5.50;;
75090;SDS011;63674;48.048;8.306;2024-02-28T14:25:40;11.77;;;5.50;;
75090;SDS011;63674;48.048;8.306;2024-02-28T14:28:09;14.10;;;5.68;;
75090;SDS011;63674;48.048;8.306;2024-02-28T14:30:39;12.50;;;5.70;;
75090;SDS011;63674;48.048;8.306;2024-02-28T14:33:09;12.82;;;6.00;;
75090;SDS011;63674;48.048;8.306;2024-02-28T14:35:40;11.52;;;5.50;;
75090;SDS011;63674;48.048;8.306;2024-02-28T14:38:09;11.48;;;5.70;;
75090;SDS011;63674;48.048;8.306;2024-02-28T14:40:37;11.50;;;5.60;;
75090;SDS011;63674;48.048;8.306;2024-02-28T14:43:08;11.67;;;5.37;;
75090;SDS011;63674;48.048;8.306;2024-02-28T14:45:36;10.63;;;4.72;;
75090;SDS011;63674;48.048;8.306;2024-02-28T14:48:06;11.65;;;5.15;;
75090;SDS011;63674;48.048;8.306;2024-02-28T14:50:35;11.18;;;4.97;;
75090;SDS011;63674;48.048;8.306;2024-02-28T14:53:04;11.02;;;5.32;;